Time;durP1;ratioP1;P1;durP2;ratioP2;P2;SDS_P1;SDS_P2;PMS_P1;PMS_P2;Temp;Humidity;BMP_temperature;BMP_pressure;BME280_temperature;BME280_humidity;BME280_pressure;Samples;Min_cycle;Max_cycle;Signal;HPM_P1;HPM_P2
2021/12/29 00:01:24;;;;;;;3.67;1.00;;;;;;;20.64;38.19;100136.91;7309273;19;129957;-62
2021/12/29 00:03:52;;;;;;;6.82;1.50;;;;;;;20.63;38.51;100128.88;7309988;19;129604;-62
2021/12/29 00:06:19;;;;;;;3.50;1.20;;;;;;;20.60;38.22;100135.81;7309463;19;130408;-62
2021/12/29 00:08:46;;;;;;;3.65;1.40;;;;;;;20.59;38.45;100134.16;7308128;19;130639;-62
2021/12/29 00:11:13;;;;;;;3.08;1.27;;;;;;;20.56;37.98;100163.31;7309454;19;129415;-62
2021/12/29 00:13:39;;;;;;;3.28;1.10;;;;;;;20.55;38.42;100172.78;7310357;19;129515;-62
2021/12/29 00:16:06;;;;;;;2.72;1.30;;;;;;;20.54;38.22;100176.69;7311258;19;131590;-62
2021/12/29 00:18:34;;;;;;;2.60;1.05;;;;;;;20.53;38.11;100196.38;7308697;19;130893;-61
2021/12/29 00:21:04;;;;;;;4.45;1.30;;;;;;;20.51;38.51;100190.25;7310862;19;128936;-62
2021/12/29 00:23:31;;;;;;;2.67;1.00;;;;;;;20.50;38.01;100197.78;7307975;19;130255;-62
2021/12/29 00:26:17;;;;;;;3.10;1.15;;;;;;;20.48;38.10;100208.31;7312518;19;132998;-61
2021/12/29 00:28:44;;;;;;;2.70;1.30;;;;;;;20.46;38.47;100202.22;7308248;19;130477;-62
2021/12/29 00:31:11;;;;;;;3.67;0.85;;;;;;;20.44;38.08;100210.84;7317179;19;130252;-61
2021/12/29 00:33:37;;;;;;;2.88;1.30;;;;;;;20.42;38.46;100207.50;7315879;19;130690;-62
2021/12/29 00:36:05;;;;;;;3.00;1.10;;;;;;;20.41;38.46;100197.50;7315743;19;131195;-62
2021/12/29 00:38:31;;;;;;;2.42;1.08;;;;;;;20.40;38.18;100201.38;7313232;19;130508;-61
2021/12/29 00:40:58;;;;;;;3.30;0.90;;;;;;;20.38;38.00;100200.81;7317330;19;128982;-62
2021/12/29 00:43:25;;;;;;;2.33;1.20;;;;;;;20.38;38.49;100205.53;7316483;19;128986;-62
2021/12/29 00:45:52;;;;;;;2.00;1.08;;;;;;;20.38;38.29;100227.78;7316457;19;135298;-61
2021/12/29 00:48:20;;;;;;;2.63;1.10;;;;;;;20.37;38.09;100232.47;7314685;19;131038;-62
2021/12/29 00:50:48;;;;;;;3.13;1.13;;;;;;;20.36;38.03;100235.53;7316221;19;129002;-62
2021/12/29 00:53:16;;;;;;;2.33;0.95;;;;;;;20.35;38.43;100236.66;7316684;19;128952;-62
2021/12/29 00:55:42;;;;;;;2.28;1.05;;;;;;;20.34;38.22;100237.75;7316321;19;130681;-61
2021/12/29 00:58:09;;;;;;;1.90;0.93;;;;;;;20.32;38.49;100234.41;7316521;19;130528;-62
2021/12/29 01:00:37;;;;;;;2.63;1.10;;;;;;;20.32;38.59;100234.41;7315781;19;129186;-62
2021/12/29 01:03:05;;;;;;;3.72;0.85;;;;;;;20.29;38.51;100239.44;7317408;19;129111;-61
2021/12/29 01:05:32;;;;;;;3.25;0.90;;;;;;;20.30;37.90;100237.47;7313096;19;130500;-62
2021/12/29 01:07:59;;;;;;;2.10;0.90;;;;;;;20.29;38.16;100250.53;7315243;19;131056;-62
2021/12/29 01:10:26;;;;;;;2.75;1.17;;;;;;;20.28;38.28;100261.91;7314902;19;129999;-61
2021/12/29 01:12:57;;;;;;;1.90;0.82;;;;;;;20.26;38.03;100262.19;7317300;19;129936;-61
2021/12/29 01:15:33;;;;;;;4.00;1.13;;;;;;;20.26;38.05;100264.13;7314196;19;131386;-61
2021/12/29 01:18:02;;;;;;;3.93;0.93;;;;;;;20.25;38.22;100279.97;7316635;19;130419;-62
2021/12/29 01:20:30;;;;;;;1.75;0.85;;;;;;;20.24;38.06;100289.41;7315433;19;128817;-61
2021/12/29 01:22:59;;;;;;;3.30;1.10;;;;;;;20.23;38.20;100303.56;7316704;19;128666;-61
2021/12/29 01:25:26;;;;;;;2.13;1.00;;;;;;;20.23;38.42;100304.41;7313955;19;132572;-61
2021/12/29 01:27:53;;;;;;;2.10;0.90;;;;;;;20.21;38.25;100306.59;7315154;19;130596;-61
2021/12/29 01:30:20;;;;;;;2.22;1.00;;;;;;;20.20;38.22;100318.81;7314953;19;129172;-62
2021/12/29 01:32:47;;;;;;;2.42;0.90;;;;;;;20.19;37.91;100311.59;7315354;19;136164;-61
2021/12/29 01:35:14;;;;;;;2.67;0.80;;;;;;;20.18;38.49;100312.72;7313941;19;131634;-61
2021/12/29 01:37:40;;;;;;;1.52;0.77;;;;;;;20.18;38.42;100320.22;7314593;19;130733;-62
2021/12/29 01:40:12;;;;;;;2.83;1.05;;;;;;;20.18;38.51;100334.09;7313477;19;129373;-62
2021/12/29 01:42:39;;;;;;;2.53;1.08;;;;;;;20.16;38.11;100334.38;7311272;19;128988;-63
2021/12/29 01:45:08;;;;;;;3.00;1.10;;;;;;;20.16;37.91;100348.25;7314729;19;130451;-62
2021/12/29 01:47:35;;;;;;;1.48;0.90;;;;;;;20.13;38.08;100346.84;7312143;19;133276;-62
2021/12/29 01:50:04;;;;;;;2.65;1.13;;;;;;;20.13;38.25;100354.34;7315876;19;129122;-61
2021/12/29 01:52:37;;;;;;;4.15;1.10;;;;;;;20.12;38.46;100349.91;7314166;19;128962;-62
2021/12/29 01:55:07;;;;;;;2.20;1.00;;;;;;;20.12;38.04;100355.44;7316209;19;130719;-62
2021/12/29 01:57:34;;;;;;;2.95;1.00;;;;;;;20.09;38.42;100356.84;7311853;19;131655;-61
2021/12/29 02:00:03;;;;;;;2.55;1.05;;;;;;;20.09;38.40;100353.22;7315819;19;129609;-62
2021/12/29 02:02:30;;;;;;;1.95;0.93;;;;;;;20.09;38.36;100361.53;7311573;19;129061;-62
2021/12/29 02:04:57;;;;;;;3.92;1.13;;;;;;;20.08;38.00;100373.75;7314628;19;130611;-62
2021/12/29 02:07:24;;;;;;;1.52;0.82;;;;;;;20.07;38.24;100366.53;7311322;19;130748;-61
2021/12/29 02:09:50;;;;;;;2.97;1.10;;;;;;;20.06;38.02;100376.81;7309394;19;129131;-62
2021/12/29 02:12:17;;;;;;;1.77;0.88;;;;;;;20.06;38.47;100376.81;7306430;19;129221;-62
2021/12/29 02:14:44;;;;;;;1.48;0.90;;;;;;;20.05;38.30;100372.34;7309923;19;132613;-61
2021/12/29 02:17:13;;;;;;;2.25;0.90;;;;;;;20.04;38.44;100372.63;7310374;19;131251;-62
2021/12/29 02:19:45;;;;;;;1.80;0.80;;;;;;;20.03;38.25;100376.53;7314120;19;129033;-61
2021/12/29 02:22:29;;;;;;;2.00;0.98;;;;;;;20.02;38.27;100377.63;7315117;19;130152;-62
2021/12/29 02:25:08;;;;;;;2.17;0.95;;;;;;;20.00;38.12;100377.88;7311870;19;130496;-62
2021/12/29 02:27:35;;;;;;;1.92;0.90;;;;;;;19.99;38.20;100368.72;7316339;19;132440;-62
2021/12/29 02:30:04;;;;;;;1.85;0.95;;;;;;;19.98;38.48;100374.53;7313227;19;128804;-62
2021/12/29 02:32:31;;;;;;;1.88;0.80;;;;;;;19.98;37.90;100375.34;7313985;19;128820;-62
2021/12/29 02:34:57;;;;;;;1.88;0.82;;;;;;;19.97;38.11;100384.78;7316474;19;130779;-62
2021/12/29 02:37:27;;;;;;;1.95;0.95;;;;;;;19.97;38.12;100387.53;7311341;19;130581;-62
2021/12/29 02:39:54;;;;;;;1.75;0.80;;;;;;;19.96;38.50;100393.38;7316028;19;128965;-62
2021/12/29 02:42:25;;;;;;;1.45;0.90;;;;;;;19.95;38.51;100395.31;7310602;19;129035;-62
2021/12/29 02:44:53;;;;;;;2.00;0.93;;;;;;;19.94;38.06;100390.84;7315129;19;131316;-62
2021/12/29 02:47:20;;;;;;;2.40;0.80;;;;;;;19.95;38.19;100391.72;7312744;19;131485;-62
2021/12/29 02:49:47;;;;;;;2.00;0.95;;;;;;;19.95;38.51;100394.47;7311706;19;128932;-62
2021/12/29 02:52:15;;;;;;;1.52;0.70;;;;;;;19.95;38.16;100409.19;7310901;19;129821;-62
2021/12/29 02:54:41;;;;;;;2.35;0.90;;;;;;;19.93;38.21;100402.25;7312950;19;131425;-62
2021/12/29 02:57:08;;;;;;;1.90;0.85;;;;;;;19.93;38.54;100405.00;7311808;19;131185;-62
2021/12/29 02:59:35;;;;;;;2.33;0.98;;;;;;;19.92;38.75;100406.97;7312598;19;128749;-62
2021/12/29 03:02:02;;;;;;;1.38;0.70;;;;;;;19.92;38.23;100409.75;7315216;19;129701;-62
2021/12/29 03:04:29;;;;;;;7.35;1.17;;;;;;;19.89;38.11;100404.72;7310888;19;130726;-62
2021/12/29 03:06:55;;;;;;;1.33;0.80;;;;;;;19.90;38.16;100413.88;7314300;19;131125;-62
2021/12/29 03:09:22;;;;;;;1.88;0.90;;;;;;;19.89;38.59;100417.75;7310077;19;129600;-62
2021/12/29 03:11:49;;;;;;;1.25;0.70;;;;;;;19.89;38.18;100418.59;7314933;19;129347;-62
2021/12/29 03:14:17;;;;;;;1.42;0.80;;;;;;;19.88;38.16;100428.03;7310314;19;130572;-63
2021/12/29 03:16:44;;;;;;;1.52;0.85;;;;;;;19.87;38.41;100440.22;7313128;19;130495;-62
2021/12/29 03:19:11;;;;;;;1.88;0.95;;;;;;;19.87;38.37;100443.00;7311743;19;128976;-62
2021/12/29 03:21:37;;;;;;;1.20;0.70;;;;;;;19.87;38.57;100444.97;7314086;19;130756;-62
2021/12/29 03:24:06;;;;;;;1.90;0.95;;;;;;;19.86;38.39;100452.44;7311007;19;130747;-63
2021/12/29 03:26:33;;;;;;;2.72;0.65;;;;;;;19.86;38.12;100451.63;7313252;19;130630;-62
2021/12/29 03:29:00;;;;;;;1.35;0.75;;;;;;;19.85;38.13;100453.53;7310260;19;129243;-62
2021/12/29 03:31:30;;;;;;;2.08;0.90;;;;;;;19.84;38.16;100446.31;7311525;19;129038;-62
2021/12/29 03:33:57;;;;;;;1.50;0.93;;;;;;;19.83;38.14;100445.50;7313148;19;132483;-62
2021/12/29 03:36:24;;;;;;;1.90;0.80;;;;;;;19.83;38.40;100451.03;7310666;19;130791;-62
2021/12/29 03:38:51;;;;;;;1.70;0.80;;;;;;;19.82;38.22;100442.97;7312030;19;129510;-62
2021/12/29 03:41:20;;;;;;;0.80;0.80;;;;;;;19.82;38.40;100448.50;7309958;19;129640;-63
2021/12/29 03:43:47;;;;;;;2.47;0.80;;;;;;;19.81;38.20;100449.63;7313700;19;130354;-62
2021/12/29 03:46:15;;;;;;;2.58;0.80;;;;;;;19.81;38.50;100457.97;7309941;19;131217;-62
2021/12/29 03:48:44;;;;;;;1.58;0.73;;;;;;;19.80;38.48;100450.75;7312400;19;130295;-62
2021/12/29 03:51:12;;;;;;;1.70;0.80;;;;;;;19.79;38.47;100458.22;7309968;19;128950;-62
2021/12/29 03:53:39;;;;;;;2.30;0.90;;;;;;;19.78;38.15;100455.72;7310858;19;130652;-62
2021/12/29 03:56:08;;;;;;;1.75;0.73;;;;;;;19.79;38.46;100449.06;7311174;19;130634;-62
2021/12/29 03:58:35;;;;;;;1.65;0.68;;;;;;;19.77;38.52;100457.63;7310642;19;128970;-62
2021/12/29 04:01:08;;;;;;;1.33;0.77;;;;;;;19.77;38.63;100462.38;7313470;19;129381;-62
2021/12/29 04:03:35;;;;;;;1.42;0.75;;;;;;;19.76;38.61;100461.50;7309975;19;130730;-62
2021/12/29 04:06:02;;;;;;;2.33;0.65;;;;;;;19.76;38.63;100460.69;7317035;19;130464;-62
2021/12/29 04:08:29;;;;;;;1.63;0.80;;;;;;;19.76;38.62;100466.25;7317347;19;129129;-62
2021/12/29 04:10:56;;;;;;;1.58;0.70;;;;;;;19.74;38.14;100462.91;7319897;19;129177;-62
2021/12/29 04:13:23;;;;;;;2.58;1.00;;;;;;;19.74;38.20;100468.44;7316298;19;131754;-62
2021/12/29 04:15:50;;;;;;;1.15;0.80;;;;;;;19.73;38.38;100466.78;7320650;19;130514;-62
2021/12/29 04:18:26;;;;;;;1.55;0.80;;;;;;;19.72;38.35;100471.50;7316883;19;130169;-62
2021/12/29 04:20:59;;;;;;;0.87;0.67;;;;;;;19.72;38.61;100481.75;7319668;19;129494;-62
2021/12/29 04:23:32;;;;;;;1.85;0.88;;;;;;;19.72;38.36;100488.16;7317368;19;131486;-61
2021/12/29 04:26:02;;;;;;;5.85;1.00;;;;;;;19.72;38.19;100490.06;7317927;19;130529;-62
2021/12/29 04:28:29;;;;;;;1.50;0.70;;;;;;;19.69;38.40;100485.91;7318914;19;130278;-62
2021/12/29 04:31:06;;;;;;;1.88;0.85;;;;;;;19.68;38.47;100487.84;7317393;19;129021;-62
2021/12/29 04:33:34;;;;;;;0.75;0.70;;;;;;;19.68;38.61;100487.84;7320395;19;132469;-62
2021/12/29 04:36:01;;;;;;;1.67;0.68;;;;;;;19.68;38.73;100489.78;7316477;19;130521;-62
2021/12/29 04:38:28;;;;;;;1.85;0.60;;;;;;;19.65;38.41;100485.59;7321011;19;130151;-62
2021/12/29 04:40:56;;;;;;;1.63;0.70;;;;;;;19.66;38.57;100498.38;7316424;19;128824;-62
2021/12/29 04:43:24;;;;;;;3.10;0.90;;;;;;;19.65;38.58;100493.91;7318072;19;131430;-62
2021/12/29 04:45:51;;;;;;;1.15;0.70;;;;;;;19.64;38.60;100486.69;7317236;19;132569;-62
2021/12/29 04:48:22;;;;;;;1.33;0.70;;;;;;;19.63;38.66;100485.00;7317932;19;128909;-62
2021/12/29 04:51:03;;;;;;;1.00;0.50;;;;;;;19.63;38.62;100490.56;7316029;19;128862;-62
2021/12/29 04:53:30;;;;;;;1.25;0.80;;;;;;;19.63;38.59;100501.66;7316362;19;130745;-62
2021/12/29 04:55:57;;;;;;;1.08;0.90;;;;;;;19.62;38.68;100496.38;7317344;19;131093;-62
2021/12/29 04:58:24;;;;;;;1.13;0.70;;;;;;;19.61;38.45;100498.31;7315770;19;130039;-62
2021/12/29 05:00:51;;;;;;;1.40;0.80;;;;;;;19.61;38.29;100500.25;7319060;19;128923;-62
2021/12/29 05:03:20;;;;;;;1.02;0.50;;;;;;;19.60;38.68;100499.41;7315114;19;130625;-62
2021/12/29 05:08:44;;;;;;;1.40;0.70;;;;;;;19.60;38.49;100513.28;7310039;19;130955;-62
2021/12/29 05:11:15;;;;;;;1.17;0.80;;;;;;;19.58;38.43;100512.69;7318847;19;129014;-63
2021/12/29 05:13:45;;;;;;;0.60;0.60;;;;;;;19.58;38.48;100504.38;7315676;19;130568;-62
2021/12/29 05:16:12;;;;;;;1.50;0.63;;;;;;;19.58;38.43;100514.66;7315957;19;130585;-61
2021/12/29 05:18:39;;;;;;;0.88;0.60;;;;;;;19.58;38.18;100514.66;7315280;19;129337;-62
2021/12/29 05:21:08;;;;;;;1.77;0.73;;;;;;;19.57;38.65;100524.91;7315224;19;128736;-62
2021/12/29 05:23:36;;;;;;;2.03;0.80;;;;;;;19.59;38.64;100525.47;7318562;19;130634;-62
2021/12/29 05:26:04;;;;;;;1.20;0.73;;;;;;;19.58;38.34;100526.56;7315892;19;130618;-62
2021/12/29 05:28:31;;;;;;;1.67;0.90;;;;;;;19.57;38.39;100516.56;7318248;19;129343;-62
2021/12/29 05:30:58;;;;;;;0.98;0.65;;;;;;;19.57;38.27;100522.13;7315631;19;129095;-62
2021/12/29 05:33:24;;;;;;;1.45;0.90;;;;;;;19.57;38.18;100513.81;7315096;19;130596;-62
2021/12/29 05:35:51;;;;;;;1.95;0.93;;;;;;;19.58;38.24;100525.75;7314346;19;130587;-63
2021/12/29 05:38:19;;;;;;;1.70;0.60;;;;;;;19.58;38.25;100534.91;7314298;19;128866;-62
2021/12/29 05:40:48;;;;;;;1.27;0.80;;;;;;;19.58;38.25;100537.69;7317572;19;131184;-62
2021/12/29 05:43:15;;;;;;;2.40;0.95;;;;;;;19.58;38.25;100551.53;7315217;19;130693;-62
2021/12/29 05:45:42;;;;;;;1.67;0.75;;;;;;;19.57;38.15;100544.31;7315301;19;130421;-62
2021/12/29 05:48:09;;;;;;;1.33;0.70;;;;;;;19.57;38.61;100546.28;7313771;19;128760;-62
2021/12/29 05:50:36;;;;;;;1.05;0.55;;;;;;;19.56;38.37;100545.44;7316116;19;128897;-62
2021/12/29 05:53:03;;;;;;;1.30;0.82;;;;;;;19.57;38.25;100533.22;7313102;19;130806;-62
2021/12/29 05:55:30;;;;;;;1.17;0.57;;;;;;;19.56;38.62;100533.50;7318615;19;130385;-62
2021/12/29 05:57:57;;;;;;;1.48;0.60;;;;;;;19.55;38.59;100535.44;7313079;19;129944;-62
2021/12/29 06:00:25;;;;;;;1.63;0.80;;;;;;;19.56;38.65;100531.56;7316032;19;128942;-62
2021/12/29 06:02:54;;;;;;;1.10;0.70;;;;;;;19.55;38.19;100532.66;7313524;19;131283;-62
2021/12/29 06:05:21;;;;;;;0.98;0.60;;;;;;;19.55;38.12;100531.81;7315329;19;130780;-62
2021/12/29 06:07:49;;;;;;;2.10;0.60;;;;;;;19.54;38.09;100522.66;7312063;19;130979;-62
2021/12/29 06:10:15;;;;;;;1.23;0.70;;;;;;;19.53;38.37;100535.69;7313086;19;129332;-62
2021/12/29 06:12:42;;;;;;;1.75;0.63;;;;;;;19.53;38.39;100532.09;7314684;19;130990;-62
2021/12/29 06:15:10;;;;;;;1.33;0.70;;;;;;;19.52;38.22;100530.41;7310542;19;131453;-62
2021/12/29 06:17:37;;;;;;;0.70;0.57;;;;;;;19.52;38.24;100535.97;7314445;19;129377;-62
2021/12/29 06:20:06;;;;;;;2.00;0.75;;;;;;;19.52;38.59;100530.41;7315435;19;129405;-62
2021/12/29 06:22:34;;;;;;;2.00;0.68;;;;;;;19.51;38.33;100543.44;7315654;19;131301;-62
2021/12/29 06:25:00;;;;;;;0.70;0.50;;;;;;;19.50;38.25;100547.34;7312823;19;131352;-62
2021/12/29 06:27:27;;;;;;;0.60;0.57;;;;;;;19.50;38.22;100558.44;7312825;19;131026;-62
2021/12/29 06:29:54;;;;;;;2.58;0.70;;;;;;;19.50;38.21;100560.34;7314314;19;129016;-62
2021/12/29 06:32:21;;;;;;;1.15;0.60;;;;;;;19.49;38.66;100562.31;7313235;19;130655;-62
2021/12/29 06:34:48;;;;;;;0.60;0.60;;;;;;;19.49;38.60;100570.63;7315845;19;130634;-62
2021/12/29 06:37:15;;;;;;;0.90;0.70;;;;;;;19.48;38.53;100576.41;7312128;19;129296;-62
2021/12/29 06:39:43;;;;;;;1.80;0.47;;;;;;;19.48;38.63;100582.81;7314601;19;129718;-62
2021/12/29 06:42:10;;;;;;;1.00;0.80;;;;;;;19.48;38.41;100579.19;7310627;19;131369;-62
2021/12/29 06:44:38;;;;;;;0.80;0.47;;;;;;;19.48;38.63;100581.97;7313123;19;130568;-62
2021/12/29 06:47:05;;;;;;;1.55;0.73;;;;;;;19.46;38.48;100581.38;7311176;19;128803;-62
2021/12/29 06:49:32;;;;;;;0.80;0.60;;;;;;;19.45;38.39;100590.81;7315045;19;129012;-62
2021/12/29 06:52:00;;;;;;;2.92;0.60;;;;;;;19.44;38.33;100603.84;7311810;19;131409;-62
2021/12/29 06:54:27;;;;;;;3.30;0.60;;;;;;;19.44;38.70;100598.31;7314626;19;130659;-62
2021/12/29 06:56:54;;;;;;;0.52;0.47;;;;;;;19.44;38.64;100591.94;7311808;19;128827;-62
2021/12/29 06:59:21;;;;;;;1.40;0.60;;;;;;;19.43;38.55;100591.06;7313005;19;129583;-62
2021/12/29 07:01:49;;;;;;;0.80;0.70;;;;;;;19.43;38.62;100581.94;7314926;19;130734;-62
2021/12/29 07:04:16;;;;;;;1.23;0.68;;;;;;;19.43;38.56;100576.38;7312924;19;130429;-62
2021/12/29 07:06:43;;;;;;;1.15;0.70;;;;;;;19.43;38.80;100573.59;7315558;19;130057;-62
2021/12/29 07:09:10;;;;;;;1.08;0.68;;;;;;;19.43;38.28;100570.81;7312555;19;129211;-62
2021/12/29 07:11:37;;;;;;;1.10;0.77;;;;;;;19.42;38.26;100571.94;7312983;19;130653;-62
2021/12/29 07:14:05;;;;;;;0.40;0.40;;;;;;;19.41;38.80;100571.06;7310284;19;131487;-62
2021/12/29 07:16:32;;;;;;;0.90;0.60;;;;;;;19.41;38.76;100582.16;7314952;19;128975;-62
2021/12/29 07:18:59;;;;;;;2.47;0.70;;;;;;;19.40;38.74;100591.59;7310888;19;128854;-62
2021/12/29 07:21:25;;;;;;;0.90;0.60;;;;;;;19.40;38.50;100590.75;7314017;19;130651;-61
2021/12/29 07:23:54;;;;;;;1.67;0.68;;;;;;;19.40;38.69;100596.31;7310950;19;130533;-62
2021/12/29 07:26:22;;;;;;;1.48;0.50;;;;;;;19.39;38.73;100589.91;7313884;19;128723;-62
2021/12/29 07:28:50;;;;;;;1.20;0.60;;;;;;;19.38;38.32;100589.09;7311916;19;128931;-62
2021/12/29 07:31:19;;;;;;;1.15;0.60;;;;;;;19.38;38.57;100594.63;7310719;19;130891;-62
2021/12/29 07:34:07;;;;;;;5.60;0.80;;;;;;;19.37;38.56;100601.28;7313747;19;132560;-61
2021/12/29 07:36:34;;;;;;;5.40;0.68;;;;;;;19.35;38.79;100620.09;7312325;19;131601;-61
2021/12/29 07:39:02;;;;;;;5.03;0.80;;;;;;;19.34;38.68;100626.75;7311829;19;129106;-61
2021/12/29 07:41:28;;;;;;;5.15;0.80;;;;;;;19.34;39.06;100632.28;7310731;19;132504;-61
2021/12/29 07:44:03;;;;;;;1.40;0.70;;;;;;;19.35;38.87;100639.53;7313189;19;130725;-61
2021/12/29 07:46:33;;;;;;;1.52;0.57;;;;;;;19.34;38.60;100632.28;7310769;19;128917;-61
2021/12/29 07:49:01;;;;;;;2.22;0.60;;;;;;;19.35;39.05;100628.44;7313992;19;128786;-61
2021/12/29 07:51:28;;;;;;;1.92;0.82;;;;;;;19.33;39.13;100613.97;7310708;19;130942;-61
2021/12/29 07:53:55;;;;;;;1.73;0.80;;;;;;;19.34;38.66;100614.81;7310761;19;133394;-61
2021/12/29 07:56:22;;;;;;;2.08;0.70;;;;;;;19.32;39.13;100622.56;7310777;19;130891;-61
2021/12/29 07:58:49;;;;;;;4.40;0.70;;;;;;;19.30;38.98;100617.28;7312126;19;129179;-61
2021/12/29 08:01:16;;;;;;;2.45;0.90;;;;;;;19.31;38.72;100610.66;7309511;19;130553;-61
2021/12/29 08:03:43;;;;;;;1.50;0.60;;;;;;;19.31;39.14;100621.75;7310401;19;130408;-61
2021/12/29 08:06:10;;;;;;;5.50;0.85;;;;;;;19.31;38.96;100624.50;7313733;19;130555;-61
2021/12/29 08:08:36;;;;;;;1.77;0.80;;;;;;;19.31;38.78;100627.28;7310755;19;128939;-61
2021/12/29 08:11:03;;;;;;;1.77;0.70;;;;;;;19.31;38.99;100618.13;7310123;19;130374;-61
2021/12/29 08:13:30;;;;;;;2.22;0.80;;;;;;;19.30;39.15;100625.59;7307630;19;130556;-61
2021/12/29 08:15:57;;;;;;;1.95;0.60;;;;;;;19.30;38.99;100628.38;7311153;19;128882;-61
2021/12/29 08:18:23;;;;;;;2.67;0.95;;;;;;;19.31;39.14;100632.84;7309365;19;129009;-61
2021/12/29 08:20:50;;;;;;;1.83;0.65;;;;;;;19.30;39.05;100621.97;7314128;19;131040;-61
2021/12/29 08:23:17;;;;;;;4.50;0.70;;;;;;;19.29;38.70;100634.16;7309927;19;130718;-61
2021/12/29 08:25:44;;;;;;;2.05;0.82;;;;;;;19.29;39.13;100635.03;7312325;19;129033;-61
2021/12/29 08:28:10;;;;;;;3.63;1.00;;;;;;;19.29;39.15;100639.72;7310185;19;128907;-61
2021/12/29 08:30:37;;;;;;;1.73;0.75;;;;;;;19.29;38.73;100635.03;7312286;19;130660;-61
2021/12/29 08:33:04;;;;;;;1.20;0.70;;;;;;;19.29;38.64;100628.63;7309620;19;130420;-61
2021/12/29 08:35:31;;;;;;;1.67;0.80;;;;;;;19.28;38.69;100632.50;7311860;19;129869;-61
2021/12/29 08:37:58;;;;;;;3.20;0.82;;;;;;;19.28;38.79;100626.94;7311012;19;128990;-61
2021/12/29 08:40:26;;;;;;;1.50;0.70;;;;;;;19.28;38.87;100625.03;7310655;19;130572;-61
2021/12/29 08:42:55;;;;;;;1.65;0.90;;;;;;;19.26;38.98;100624.44;7311848;19;130611;-61
2021/12/29 08:45:22;;;;;;;3.53;0.88;;;;;;;19.26;39.12;100627.22;7309311;19;128793;-62
2021/12/29 08:47:49;;;;;;;2.03;0.80;;;;;;;19.26;39.17;100635.53;7312313;19;128960;-61
2021/12/29 08:50:17;;;;;;;1.45;0.70;;;;;;;19.27;38.71;100631.66;7310420;19;130669;-61
2021/12/29 08:52:44;;;;;;;2.42;0.60;;;;;;;19.25;38.87;100633.84;7319680;19;130341;-61
2021/12/29 08:55:13;;;;;;;2.90;0.70;;;;;;;19.25;38.65;100633.84;7315660;19;128918;-61
2021/12/29 08:57:41;;;;;;;1.50;0.68;;;;;;;19.25;38.65;100633.03;7317650;19;129352;-61
2021/12/29 09:00:14;;;;;;;2.47;0.85;;;;;;;19.26;38.71;100618.88;7316779;19;130794;-61
2021/12/29 09:02:41;;;;;;;3.40;0.65;;;;;;;19.26;38.84;100618.88;7317543;19;131409;-61
2021/12/29 09:05:10;;;;;;;2.05;0.80;;;;;;;19.26;38.86;100613.34;7318242;19;128776;-61
2021/12/29 09:07:37;;;;;;;3.75;0.70;;;;;;;19.24;39.14;100615.53;7317568;19;128745;-61
2021/12/29 09:10:06;;;;;;;1.85;0.75;;;;;;;19.25;39.02;100606.13;7319081;19;130569;-61
2021/12/29 09:12:33;;;;;;;1.80;0.73;;;;;;;19.25;38.65;100599.75;7316188;19;135331;-61
2021/12/29 09:15:01;;;;;;;3.00;0.80;;;;;;;19.22;38.80;100601.94;7318935;19;129669;-61
2021/12/29 09:17:27;;;;;;;4.15;0.95;;;;;;;19.22;38.73;100601.06;7314011;19;128926;-61
2021/12/29 09:19:54;;;;;;;3.85;1.17;;;;;;;19.23;39.17;100602.75;7317438;19;130619;-61
2021/12/29 09:22:21;;;;;;;5.50;0.65;;;;;;;19.23;38.85;100599.97;7307167;19;130477;-61
2021/12/29 09:24:47;;;;;;;3.65;0.90;;;;;;;19.27;39.16;100598.38;7317594;19;131383;-60
2021/12/29 09:27:15;;;;;;;10.73;1.38;;;;;;;19.31;39.36;100610.66;7311943;19;129990;-61
2021/12/29 09:29:43;;;;;;;7.22;1.00;;;;;;;19.37;39.29;100603.22;7314736;19;130671;-62
2021/12/29 09:32:09;;;;;;;5.45;1.10;;;;;;;19.41;39.52;100589.66;7314501;19;130519;-61
2021/12/29 09:34:36;;;;;;;5.50;1.30;;;;;;;19.45;39.71;100588.03;7315996;19;128918;-62
2021/12/29 09:37:05;;;;;;;12.18;1.92;;;;;;;19.47;39.42;100586.69;7305974;19;131844;-61
2021/12/29 09:39:32;;;;;;;6.75;1.30;;;;;;;19.48;39.64;100591.16;7314882;19;130647;-61
2021/12/29 09:41:59;;;;;;;8.00;1.10;;;;;;;19.52;39.72;100591.47;7316471;19;130494;-60
2021/12/29 09:44:26;;;;;;;8.45;1.80;;;;;;;19.54;39.76;100586.50;7315655;19;130247;-61
2021/12/29 09:46:54;;;;;;;3.17;1.00;;;;;;;19.56;39.42;100587.06;7317099;19;129224;-61
2021/12/29 09:49:22;;;;;;;4.97;1.10;;;;;;;19.58;39.91;100575.69;7312333;19;130640;-61
2021/12/29 09:51:50;;;;;;;9.07;1.35;;;;;;;19.61;39.50;100586.28;7315336;19;130641;-61
2021/12/29 09:54:18;;;;;;;5.25;1.55;;;;;;;19.62;39.89;100588.78;7312744;19;129024;-61
2021/12/29 09:56:44;;;;;;;6.13;1.23;;;;;;;19.64;39.60;100586.59;7316376;19;129032;-61
2021/12/29 09:59:11;;;;;;;2.92;1.00;;;;;;;19.66;39.88;100576.06;7314173;19;130635;-61
2021/12/29 10:01:38;;;;;;;5.57;1.20;;;;;;;19.67;39.70;100563.88;7314582;19;130824;-61
2021/12/29 10:04:05;;;;;;;7.00;1.48;;;;;;;19.68;40.03;100565.56;7309981;19;129819;-61
2021/12/29 10:06:32;;;;;;;4.63;1.30;;;;;;;19.69;39.51;100560.81;7314565;19;128868;-61
2021/12/29 10:09:10;;;;;;;5.30;1.10;;;;;;;19.71;39.96;100557.78;7313285;19;131569;-61
2021/12/29 10:11:37;;;;;;;4.95;1.42;;;;;;;19.68;39.78;100554.44;7311969;19;130519;-61
2021/12/29 10:14:09;;;;;;;3.35;0.98;;;;;;;19.71;39.63;100563.31;7314751;19;130712;-61
2021/12/29 10:16:36;;;;;;;2.50;1.05;;;;;;;19.72;39.89;100581.66;7314203;19;128855;-61
2021/12/29 10:19:12;;;;;;;5.70;1.20;;;;;;;19.73;39.62;100583.34;7313370;19;130572;-61
2021/12/29 10:21:45;;;;;;;3.28;0.88;;;;;;;19.71;39.98;100574.44;7314726;19;130996;-61
2021/12/29 10:24:12;;;;;;;6.25;1.25;;;;;;;19.72;39.81;100579.72;7316085;19;128889;-61
2021/12/29 10:26:46;;;;;;;5.10;1.00;;;;;;;19.73;39.64;100577.78;7313446;19;130745;-61
2021/12/29 10:29:16;;;;;;;4.25;1.00;;;;;;;19.72;39.94;100576.09;7315316;19;131093;-61
2021/12/29 10:31:55;;;;;;;4.38;1.20;;;;;;;19.73;39.81;100575.00;7313610;19;130794;-60
2021/12/29 10:34:26;;;;;;;4.10;1.35;;;;;;;19.73;39.70;100577.78;7313911;19;128926;-60
2021/12/29 10:37:02;;;;;;;4.80;1.17;;;;;;;19.71;39.97;100558.63;7315140;19;129216;-60
2021/12/29 10:39:34;;;;;;;4.53;1.30;;;;;;;19.68;40.06;100543.34;7317697;19;130741;-60
2021/12/29 10:42:06;;;;;;;4.25;1.20;;;;;;;19.73;39.48;100558.34;7314113;19;130495;-60
2021/12/29 10:44:37;;;;;;;4.88;1.13;;;;;;;19.77;39.50;100562.28;7315466;19;129089;-60
2021/12/29 10:47:16;;;;;;;5.30;1.20;;;;;;;19.82;39.22;100552.06;7316458;19;128655;-60
2021/12/29 10:49:58;;;;;;;3.10;1.33;;;;;;;19.86;39.06;100552.38;7311892;19;131907;-60
2021/12/29 10:52:45;;;;;;;2.80;1.10;;;;;;;19.95;38.84;100559.09;7312837;19;130471;-61
2021/12/29 10:55:18;;;;;;;4.63;1.10;;;;;;;20.03;39.14;100554.22;7316773;19;128894;-60
2021/12/29 10:57:46;;;;;;;3.10;1.10;;;;;;;20.10;38.82;100543.72;7313149;19;128963;-60
2021/12/29 11:00:35;;;;;;;4.18;1.25;;;;;;;20.19;38.84;100547.66;7311831;19;132232;-60
2021/12/29 11:03:14;;;;;;;3.08;1.15;;;;;;;20.29;38.59;100542.22;7314788;19;130569;-60
2021/12/29 11:05:48;;;;;;;3.92;1.35;;;;;;;20.34;38.66;100554.44;7315051;19;129794;-60
2021/12/29 11:08:17;;;;;;;3.72;1.10;;;;;;;20.41;38.66;100552.28;7312737;19;129590;-60
2021/12/29 11:10:45;;;;;;;11.20;1.83;;;;;;;20.48;38.74;100552.88;7313561;19;130935;-60
2021/12/29 11:13:23;;;;;;;5.68;1.05;;;;;;;20.54;38.45;100554.59;7311218;19;131312;-59
2021/12/29 11:15:52;;;;;;;7.72;0.95;;;;;;;20.59;38.42;100535.16;7311398;19;128939;-62
2021/12/29 11:18:18;;;;;;;4.85;0.85;;;;;;;20.61;38.53;100546.03;7313542;19;129076;-61
2021/12/29 11:20:45;;;;;;;6.38;1.20;;;;;;;20.64;38.07;100542.69;7315420;19;131660;-60
2021/12/29 11:23:17;;;;;;;4.88;1.17;;;;;;;20.67;38.40;100552.44;7312157;19;130993;-61
2021/12/29 11:25:44;;;;;;;4.70;0.80;;;;;;;20.69;37.98;100534.38;7313437;19;128730;-61